Time;durP1;ratioP1;P1;durP2;ratioP2;P2;SDS_P1;SDS_P2;PMS_P1;PMS_P2;Temp;Humidity;BMP_temperature;BMP_pressure;BME280_temperature;BME280_humidity;BME280_pressure;Samples;Min_cycle;Max_cycle;Signal;HPM_P1;HPM_P2
2023/04/08 00:02:10;;;;;;;18.85;13.38;;;7.20;99.90;;;6.32;100.00;98100.56;5002406;28;20058;-70
2023/04/08 00:04:38;;;;;;;24.95;14.80;;;7.20;99.90;;;6.37;100.00;98099.59;5004430;28;20062;-70
2023/04/08 00:07:06;;;;;;;20.90;13.25;;;7.20;99.90;;;6.24;100.00;98100.69;5006463;28;20057;-70
2023/04/08 00:09:33;;;;;;;19.27;13.57;;;7.20;99.90;;;6.22;100.00;98100.72;5004164;28;20041;-70
2023/04/08 00:12:00;;;;;;;24.38;14.80;;;7.20;99.90;;;6.22;100.00;98100.72;5003608;28;20076;-69
2023/04/08 00:14:28;;;;;;;22.95;16.10;;;7.20;99.90;;;6.27;100.00;98109.25;5006193;28;20054;-70
2023/04/08 00:16:55;;;;;;;28.13;18.25;;;7.20;99.90;;;6.26;100.00;98107.53;5003599;28;20165;-71
2023/04/08 00:19:22;;;;;;;25.73;17.20;;;7.20;99.90;;;6.29;100.00;98104.03;5005425;28;20596;-70
2023/04/08 00:21:50;;;;;;;24.52;16.83;;;7.20;99.90;;;6.31;100.00;98102.28;5005216;28;20108;-71
2023/04/08 00:24:18;;;;;;;21.10;15.35;;;7.20;99.90;;;6.28;100.00;98102.34;5001859;28;20061;-69
2023/04/08 00:26:45;;;;;;;24.90;16.98;;;7.20;99.90;;;6.26;100.00;98104.09;5020946;28;20065;-71
2023/04/08 00:29:13;;;;;;;25.67;16.58;;;7.10;99.90;;;6.25;100.00;98103.25;5003629;28;20045;-70
2023/04/08 00:31:40;;;;;;;27.42;17.40;;;7.20;99.90;;;6.24;100.00;98103.28;5006460;28;20144;-70
2023/04/08 00:34:07;;;;;;;22.35;15.45;;;7.10;99.90;;;6.08;100.00;98106.09;5005641;28;20053;-71
2023/04/08 00:36:35;;;;;;;23.85;16.02;;;7.10;99.90;;;6.06;100.00;98101.84;5004644;28;20050;-70
2023/04/08 00:39:04;;;;;;;30.25;17.50;;;7.10;99.90;;;6.10;100.00;98103.50;5006804;28;20042;-70
2023/04/08 00:41:33;;;;;;;27.83;17.20;;;7.00;99.90;;;6.08;100.00;98107.81;5004060;28;20402;-69
2023/04/08 00:44:02;;;;;;;32.80;16.75;;;7.00;99.90;;;6.02;100.00;98103.63;5004308;28;20054;-69
2023/04/08 00:46:30;;;;;;;26.65;17.90;;;7.00;99.90;;;6.07;100.00;98099.25;5004429;28;20137;-69
2023/04/08 00:48:58;;;;;;;32.13;18.42;;;7.00;99.90;;;6.14;100.00;98107.72;5005942;28;20132;-70
2023/04/08 00:51:25;;;;;;;28.42;18.58;;;7.00;99.90;;;6.13;100.00;98111.16;5006574;28;20149;-70
2023/04/08 00:53:52;;;;;;;25.75;16.33;;;7.00;99.90;;;6.09;100.00;98114.69;5008222;28;20057;-70
2023/04/08 00:56:20;;;;;;;31.30;19.25;;;7.00;99.90;;;6.11;100.00;98110.34;5005317;28;20057;-70
2023/04/08 00:58:47;;;;;;;32.72;18.35;;;7.00;99.90;;;6.08;100.00;98111.25;5007144;28;20058;-71
2023/04/08 01:01:50;;;;;;;27.52;17.08;;;7.00;99.90;;;6.03;100.00;98107.91;4988488;28;20527;-71
2023/04/08 01:04:35;;;;;;;30.15;16.75;;;7.00;99.90;;;6.02;100.00;98119.09;5006181;28;20515;-70
2023/04/08 01:07:27;;;;;;;30.23;19.50;;;6.90;99.90;;;6.01;100.00;98119.94;5003961;28;20041;-71
2023/04/08 01:09:56;;;;;;;27.73;17.33;;;7.00;99.90;;;5.96;100.00;98114.03;4999206;28;20133;-71
2023/04/08 01:12:30;;;;;;;30.60;17.77;;;7.00;99.90;;;5.91;100.00;98114.94;4988484;28;20141;-71
2023/04/08 01:15:04;;;;;;;;;;;6.90;99.90;;;5.84;100.00;98106.47;4985790;28;20064;-71
2023/04/08 01:17:32;;;;;;;29.23;17.90;;;6.90;99.90;;;5.85;100.00;98110.72;4990775;28;20639;-71
2023/04/08 01:20:03;;;;;;;30.75;18.73;;;6.80;99.90;;;5.87;100.00;98109.81;5002330;28;20394;-70
2023/04/08 01:23:00;;;;;;;29.35;18.98;;;6.80;99.90;;;5.92;100.00;98108.91;5006099;28;20429;-71
2023/04/08 01:25:35;;;;;;;32.63;20.25;;;6.80;99.90;;;5.88;100.00;98110.66;5023395;28;20057;-70
2023/04/08 01:28:12;;;;;;;33.13;20.75;;;6.80;99.90;;;5.91;100.00;98114.94;5001903;28;20049;-71
2023/04/08 01:30:41;;;;;;;32.70;20.85;;;6.80;99.90;;;5.90;100.00;98108.94;5002052;28;20112;-70
2023/04/08 01:33:14;;;;;;;33.70;20.02;;;6.80;99.90;;;5.89;100.00;98112.38;5006643;28;20050;-71
2023/04/08 01:35:43;;;;;;;36.85;22.75;;;6.80;99.90;;;5.95;100.00;98109.72;5003876;28;20077;-71
2023/04/08 01:38:17;;;;;;;28.30;19.30;;;6.80;99.90;;;5.97;100.00;98104.56;5003887;28;20046;-71
2023/04/08 01:40:46;;;;;;;35.08;21.42;;;6.80;99.90;;;5.97;100.00;98112.28;5003675;28;20053;-71
2023/04/08 01:43:16;;;;;;;30.15;19.60;;;6.80;99.90;;;5.98;100.00;98111.44;5004601;28;20052;-71
2023/04/08 01:45:46;;;;;;;35.55;22.42;;;6.90;99.90;;;6.03;100.00;98104.47;5002232;28;20823;-70
2023/04/08 01:48:15;;;;;;;32.85;21.52;;;6.90;99.90;;;6.07;100.00;98106.13;5002082;28;20042;-70
2023/04/08 01:50:44;;;;;;;39.47;23.55;;;6.90;99.90;;;6.04;100.00;98101.00;5003507;28;20425;-71
2023/04/08 01:53:11;;;;;;;36.17;22.02;;;6.90;99.90;;;6.07;100.00;98103.56;5004505;28;20088;-70
2023/04/08 01:55:40;;;;;;;31.15;21.23;;;6.90;99.90;;;6.01;100.00;98101.91;5005023;28;20061;-71
2023/04/08 01:58:14;;;;;;;34.90;22.77;;;6.90;99.90;;;6.03;100.00;98101.91;5002688;28;20046;-71
2023/04/08 02:00:42;;;;;;;35.47;22.45;;;7.00;99.90;;;6.04;100.00;98107.03;5001449;28;20528;-71
2023/04/08 02:03:12;;;;;;;32.35;20.73;;;6.90;99.90;;;6.02;100.00;98097.59;5002010;28;20069;-70
2023/04/08 02:05:39;;;;;;;32.72;21.17;;;6.90;99.90;;;6.05;100.00;98095.00;5002033;28;20057;-71
2023/04/08 02:08:07;;;;;;;38.40;25.02;;;7.00;99.90;;;6.03;100.00;98102.75;5003505;28;20060;-71
2023/04/08 02:10:34;;;;;;;29.63;20.15;;;6.90;99.90;;;6.00;100.00;98104.53;4987673;28;20415;-71
2023/04/08 02:13:02;;;;;;;34.13;22.20;;;7.00;99.90;;;6.07;100.00;98103.56;5001475;28;20058;-70
2023/04/08 02:15:35;;;;;;;32.47;22.15;;;7.00;99.90;;;6.07;100.00;98106.97;5004823;28;20044;-70
2023/04/08 02:18:13;;;;;;;38.28;22.50;;;7.00;99.90;;;6.12;100.00;98111.22;5003074;28;20424;-70
2023/04/08 02:20:49;;;;;;;38.65;23.17;;;7.00;99.90;;;6.13;100.00;98106.00;4991995;28;20045;-71
2023/04/08 02:23:24;;;;;;;38.40;22.08;;;7.00;99.90;;;6.18;100.00;98109.41;5005442;28;20374;-71
2023/04/08 02:25:54;;;;;;;35.40;23.85;;;7.00;99.90;;;6.08;100.00;98111.25;5007304;28;20058;-70
2023/04/08 02:28:22;;;;;;;43.92;24.30;;;7.00;99.90;;;6.08;100.00;98108.66;5003556;28;20781;-71
2023/04/08 02:30:51;;;;;;;34.53;22.90;;;7.00;99.90;;;6.15;100.00;98109.41;5004186;28;20064;-72
2023/04/08 02:33:21;;;;;;;41.45;22.02;;;6.90;99.90;;;6.10;100.00;98116.38;5003930;28;20052;-70
2023/04/08 02:35:53;;;;;;;40.03;23.60;;;6.90;99.90;;;6.07;100.00;98112.13;4988441;28;20119;-71
2023/04/08 02:38:20;;;;;;;38.00;22.00;;;7.00;99.90;;;6.02;100.00;98115.63;5001584;28;20534;-71
2023/04/08 02:40:50;;;;;;;41.90;24.05;;;7.00;99.90;;;6.05;100.00;98115.63;5002811;28;20057;-71
2023/04/08 02:43:17;;;;;;;43.38;23.63;;;6.90;99.90;;;6.05;100.00;98113.88;5002938;28;20080;-70
2023/04/08 02:45:44;;;;;;;37.47;23.20;;;7.00;99.90;;;6.04;100.00;98117.34;5003558;28;20061;-71
2023/04/08 02:48:11;;;;;;;35.63;21.35;;;7.00;99.90;;;6.06;100.00;98118.16;5001610;28;20099;-71
2023/04/08 02:50:39;;;;;;;33.70;20.98;;;7.00;99.90;;;6.04;100.00;98108.75;5003549;28;20061;-70
2023/04/08 02:53:07;;;;;;;37.08;22.63;;;7.00;99.90;;;6.06;100.00;98112.16;5002319;28;20591;-71
2023/04/08 02:55:34;;;;;;;37.70;22.23;;;7.00;99.90;;;6.06;100.00;98114.72;5001058;28;20046;-71
2023/04/08 02:58:01;;;;;;;37.08;21.83;;;6.90;99.90;;;6.05;100.00;98113.88;5002415;28;20105;-71
2023/04/08 03:00:29;;;;;;;33.33;22.15;;;6.90;99.90;;;6.08;100.00;98111.25;5002303;28;20061;-71
2023/04/08 03:02:56;;;;;;;40.97;24.50;;;7.00;99.90;;;6.21;100.00;98111.06;5002609;28;20070;-71
2023/04/08 03:05:26;;;;;;;45.72;23.38;;;7.00;99.90;;;6.15;100.00;98111.16;5003148;28;20112;-71
2023/04/08 03:07:53;;;;;;;40.70;25.05;;;7.00;99.90;;;6.16;100.00;98107.69;5002351;28;20413;-71
2023/04/08 03:10:20;;;;;;;44.13;25.15;;;7.00;99.90;;;6.24;100.00;98109.28;4999955;28;20073;-71
2023/04/08 03:12:47;;;;;;;41.53;22.38;;;7.00;99.90;;;6.22;100.00;98113.59;5001604;28;20081;-70
2023/04/08 03:15:15;;;;;;;40.00;26.15;;;7.10;99.90;;;6.21;100.00;98113.63;5003538;28;20151;-71
2023/04/08 03:17:42;;;;;;;38.28;22.88;;;7.10;99.90;;;6.16;100.00;98107.69;5003939;28;20140;-71
2023/04/08 03:20:12;;;;;;;39.50;24.42;;;7.10;99.90;;;6.25;100.00;98112.72;4999395;28;20947;-71
2023/04/08 03:22:39;;;;;;;37.80;23.17;;;7.10;99.90;;;6.26;100.00;98111.84;4988922;28;20306;-70
2023/04/08 03:25:08;;;;;;;37.38;22.55;;;7.10;99.90;;;6.23;100.00;98114.47;5004193;28;20129;-71
2023/04/08 03:27:34;;;;;;;33.97;21.67;;;7.10;99.90;;;6.23;100.00;98112.75;5000738;28;20045;-71
2023/04/08 03:30:02;;;;;;;31.45;22.45;;;7.10;99.90;;;6.25;100.00;98113.56;5003322;28;20054;-70
2023/04/08 03:32:29;;;;;;;38.58;23.80;;;7.10;99.90;;;6.30;100.00;98107.50;5003889;28;20121;-71
2023/04/08 03:34:56;;;;;;;32.58;23.27;;;7.10;99.90;;;6.31;100.00;98112.59;5002529;28;20054;-71
2023/04/08 03:37:23;;;;;;;33.05;21.77;;;7.10;99.90;;;6.29;100.00;98116.91;5004665;28;20048;-71
2023/04/08 03:39:51;;;;;;;35.55;23.20;;;7.10;99.90;;;6.35;100.00;98118.56;5005489;28;20058;-70
2023/04/08 03:42:18;;;;;;;37.97;23.95;;;7.10;99.90;;;6.33;100.00;98118.59;5006651;28;20107;-71
2023/04/08 03:44:45;;;;;;;41.15;23.23;;;7.10;99.90;;;6.29;100.00;98114.34;5002542;28;20052;-71
2023/04/08 03:47:12;;;;;;;34.72;23.08;;;7.10;99.90;;;6.32;100.00;98118.59;4993741;28;20054;-71
2023/04/08 03:49:39;;;;;;;39.75;23.27;;;7.10;99.90;;;6.31;100.00;98122.06;5004654;28;20050;-71
2023/04/08 03:52:06;;;;;;;41.33;24.85;;;7.10;99.90;;;6.33;100.00;98118.59;5002009;28;20050;-71
2023/04/08 03:54:33;;;;;;;35.55;21.90;;;7.10;99.90;;;6.23;100.00;98112.75;5005538;28;20049;-71
2023/04/08 03:57:00;;;;;;;34.30;22.05;;;7.10;99.90;;;6.23;100.00;98117.03;5002528;28;21125;-71
2023/04/08 03:59:27;;;;;;;33.75;21.67;;;7.10;99.90;;;6.18;100.00;98118.81;5001900;28;20615;-71
2023/04/08 04:01:55;;;;;;;41.95;24.42;;;7.10;99.90;;;6.21;100.00;98116.22;5003280;28;20058;-71
2023/04/08 04:04:23;;;;;;;40.63;24.25;;;7.10;99.90;;;6.22;100.00;98116.16;5002797;28;20089;-71
2023/04/08 04:06:50;;;;;;;42.53;24.17;;;7.00;99.90;;;6.19;100.00;98112.81;4987709;28;20428;-70
2023/04/08 04:09:17;;;;;;;34.22;23.30;;;7.00;99.90;;;6.19;100.00;98116.22;5000318;28;20077;-70
2023/04/08 04:11:44;;;;;;;38.22;23.85;;;7.00;99.90;;;6.22;100.00;98112.75;5003553;28;20128;-71
2023/04/08 04:14:12;;;;;;;36.67;23.52;;;7.00;99.90;;;6.21;100.00;98116.22;5002980;28;20054;-71
2023/04/08 04:16:39;;;;;;;37.75;22.88;;;7.10;99.90;;;6.14;100.00;98107.72;5006549;28;20053;-71
2023/04/08 04:19:05;;;;;;;38.95;23.40;;;7.10;99.90;;;6.08;100.00;98112.97;5006976;28;20152;-70
2023/04/08 04:21:32;;;;;;;40.63;23.63;;;7.00;99.90;;;6.11;100.00;98118.06;5002547;28;20137;-70
2023/04/08 04:23:59;;;;;;;39.97;22.83;;;7.00;99.90;;;6.05;100.00;98118.19;5003761;28;20057;-71
2023/04/08 04:26:26;;;;;;;37.05;23.77;;;6.90;99.90;;;6.07;100.00;98116.44;5006926;28;20054;-70
2023/04/08 04:28:53;;;;;;;43.10;24.23;;;7.00;99.90;;;6.07;100.00;98119.88;5005866;28;20060;-71
2023/04/08 04:31:25;;;;;;;45.58;24.92;;;7.00;99.90;;;6.12;100.00;98113.78;5004463;28;20140;-71
2023/04/08 04:33:52;;;;;;;53.80;27.58;;;7.00;99.90;;;6.07;100.00;98125.03;5017608;28;20136;-71
2023/04/08 04:36:19;;;;;;;43.63;25.48;;;7.00;99.90;;;6.02;100.00;98123.38;5003820;28;20424;-71
2023/04/08 04:38:46;;;;;;;43.38;23.63;;;7.00;99.90;;;6.03;100.00;98123.38;5005730;28;20046;-71
2023/04/08 04:41:16;;;;;;;38.47;22.83;;;6.90;99.90;;;5.96;100.00;98126.06;5002378;28;20101;-71
2023/04/08 04:43:43;;;;;;;35.03;22.60;;;6.90;99.90;;;6.05;100.00;98128.50;5006191;28;20050;-71
2023/04/08 04:46:10;;;;;;;44.78;25.88;;;6.90;99.90;;;6.06;100.00;98130.19;4989614;28;20092;-70
2023/04/08 04:48:37;;;;;;;48.97;26.50;;;6.90;99.90;;;6.13;100.00;98142.09;5005193;28;20053;-71
2023/04/08 04:51:06;;;;;;;45.33;25.95;;;7.00;99.90;;;6.12;100.00;98135.25;5006281;28;20072;-71
2023/04/08 04:53:33;;;;;;;45.08;26.38;;;7.00;99.90;;;6.12;100.00;98137.84;5005321;28;20049;-70
2023/04/08 04:56:00;;;;;;;46.03;26.45;;;7.00;99.90;;;6.17;100.00;98135.19;5005849;28;20416;-70
2023/04/08 04:58:29;;;;;;;39.45;24.80;;;7.00;99.90;;;6.14;100.00;98135.25;5003041;28;20046;-71
2023/04/08 05:00:56;;;;;;;35.72;22.77;;;7.10;99.90;;;6.09;100.00;98137.88;5006197;28;20046;-71
2023/04/08 05:03:23;;;;;;;41.08;25.75;;;7.00;99.90;;;6.06;100.00;98140.50;5008113;28;20112;-71
2023/04/08 05:05:52;;;;;;;45.00;26.42;;;7.00;99.90;;;6.10;100.00;98141.31;5005799;28;20053;-71
2023/04/08 05:08:20;;;;;;;53.83;27.85;;;7.00;99.90;;;6.07;100.00;98142.22;5002732;28;20047;-71
2023/04/08 05:10:49;;;;;;;42.35;25.52;;;7.00;99.90;;;5.99;100.00;98144.03;5003937;28;20050;-71
2023/04/08 05:13:17;;;;;;;44.00;25.13;;;6.90;99.90;;;6.00;100.00;98144.03;5000483;28;20141;-71
2023/04/08 05:15:44;;;;;;;53.08;28.35;;;6.90;99.90;;;5.98;100.00;98155.25;5015791;28;20057;-71
2023/04/08 05:18:11;;;;;;;52.45;28.42;;;6.90;99.90;;;6.00;100.00;98156.91;5004856;28;20169;-70
2023/04/08 05:20:39;;;;;;;46.25;26.60;;;6.90;99.90;;;6.02;100.00;98160.31;5003893;28;20046;-71
2023/04/08 05:23:06;;;;;;;46.53;27.40;;;6.90;99.90;;;6.10;100.00;98151.63;5003199;28;20046;-70
2023/04/08 05:25:34;;;;;;;38.70;23.23;;;7.00;99.90;;;6.09;100.00;98155.94;5002601;28;20077;-70
2023/04/08 05:28:01;;;;;;;36.72;24.40;;;6.90;99.90;;;6.13;100.00;98154.16;5006577;28;20366;-70
2023/04/08 05:30:29;;;;;;;44.72;24.13;;;7.00;99.90;;;6.03;100.00;98156.84;5005101;28;20042;-71
2023/04/08 05:32:56;;;;;;;43.63;25.70;;;7.00;99.90;;;6.11;100.00;98155.88;5005510;28;20046;-70
2023/04/08 05:35:26;;;;;;;42.85;25.80;;;7.00;99.90;;;6.18;100.00;98158.38;5006617;28;20077;-71
2023/04/08 05:37:53;;;;;;;47.70;28.77;;;7.00;99.90;;;6.24;100.00;98165.97;5001425;28;20081;-71
2023/04/08 05:40:20;;;;;;;45.85;27.13;;;7.00;99.90;;;6.25;100.00;98162.53;4998811;28;20050;-70
2023/04/08 05:42:47;;;;;;;43.05;25.73;;;7.00;99.90;;;6.30;100.00;98164.22;5004213;28;20054;-70
2023/04/08 05:45:15;;;;;;;54.30;27.02;;;7.10;99.90;;;6.25;100.00;98164.28;5002838;28;20042;-71
2023/04/08 05:47:42;;;;;;;44.42;24.88;;;7.10;99.90;;;6.25;100.00;98161.69;5001851;28;20080;-70
2023/04/08 05:50:10;;;;;;;36.70;23.00;;;7.10;99.90;;;6.35;100.00;98167.56;5000307;28;20072;-70
2023/04/08 05:52:42;;;;;;;39.78;25.55;;;7.10;99.90;;;6.38;100.00;98167.50;4999793;28;20136;-71
2023/04/08 05:55:10;;;;;;;38.75;24.73;;;7.10;99.90;;;6.41;100.00;98170.00;5004510;28;20141;-71
2023/04/08 05:57:37;;;;;;;37.78;24.00;;;7.20;99.90;;;6.47;100.00;98172.50;5003343;28;20050;-71
2023/04/08 06:00:07;;;;;;;38.88;23.52;;;7.20;99.90;;;6.45;100.00;98171.66;5005014;28;20056;-71
2023/04/08 06:02:35;;;;;;;36.67;24.40;;;7.20;99.90;;;6.52;100.00;98170.69;5005783;28;20496;-70
2023/04/08 06:05:03;;;;;;;34.88;23.80;;;7.20;99.90;;;6.46;100.00;98175.97;5003559;28;20053;-70
2023/04/08 06:07:32;;;;;;;38.25;24.60;;;7.30;99.90;;;6.53;100.00;98176.72;5003331;28;20050;-70
2023/04/08 06:09:59;;;;;;;35.67;23.73;;;7.30;99.90;;;6.51;100.00;98181.91;5003968;28;20041;-71
2023/04/08 06:12:26;;;;;;;44.53;25.55;;;7.30;99.90;;;6.54;100.00;98184.41;5003458;28;20057;-71
2023/04/08 06:14:55;;;;;;;38.08;24.40;;;7.30;99.90;;;6.62;100.00;98192.03;5001966;28;20558;-70
2023/04/08 06:17:22;;;;;;;46.03;25.88;;;7.30;99.90;;;6.65;100.00;98184.25;5000673;28;20140;-71
2023/04/08 06:19:49;;;;;;;39.95;24.58;;;7.40;99.90;;;6.69;100.00;98184.16;5003289;28;20081;-70
2023/04/08 06:22:16;;;;;;;44.58;26.13;;;7.40;99.90;;;6.72;100.00;98187.56;5002058;28;20041;-70
2023/04/08 06:24:44;;;;;;;40.60;24.52;;;7.50;99.90;;;6.70;100.00;98185.00;5003764;28;20060;-70
2023/04/08 06:27:12;;;;;;;34.47;24.05;;;7.50;99.90;;;6.77;100.00;98185.75;4982891;28;20054;-70
2023/04/08 06:29:40;;;;;;;41.10;24.98;;;7.50;99.90;;;6.76;100.00;98191.81;5004533;28;20151;-71
2023/04/08 06:32:09;;;;;;;40.22;25.38;;;7.60;99.90;;;6.79;100.00;98194.31;5001988;28;20045;-71
2023/04/08 06:34:37;;;;;;;46.80;26.40;;;7.60;99.90;;;7.00;100.00;98187.91;4998517;28;20053;-71
2023/04/08 06:37:05;;;;;;;44.03;26.38;;;7.70;99.90;;;7.01;100.00;98189.63;5003177;28;20495;-70
2023/04/08 06:39:32;;;;;;;41.70;26.23;;;7.70;99.90;;;7.02;100.00;98183.56;5006281;28;20045;-70
2023/04/08 06:41:59;;;;;;;44.67;27.35;;;7.80;99.90;;;6.94;100.00;98186.31;4982410;28;20053;-71
2023/04/08 06:44:26;;;;;;;37.67;25.50;;;7.70;99.90;;;6.99;100.00;98196.53;5003958;28;20133;-71
2023/04/08 06:46:53;;;;;;;43.10;27.55;;;7.80;99.90;;;7.07;100.00;98190.38;5000135;28;20088;-71
2023/04/08 06:49:20;;;;;;;39.47;24.60;;;7.80;99.90;;;7.19;100.00;98194.44;5002436;28;20069;-71
2023/04/08 06:51:50;;;;;;;44.80;24.95;;;7.80;99.90;;;7.29;100.00;98189.94;4985590;28;20073;-71
2023/04/08 06:54:18;;;;;;;41.30;25.58;;;7.90;99.90;;;7.31;100.00;98193.34;5005555;28;20054;-71
2023/04/08 06:56:45;;;;;;;40.25;25.85;;;8.00;99.90;;;7.38;100.00;98196.66;5003114;28;20469;-71
2023/04/08 06:59:12;;;;;;;36.35;23.38;;;8.00;99.90;;;7.30;100.00;98187.34;5003964;28;20050;-71
2023/04/08 07:01:42;;;;;;;35.63;24.67;;;8.10;99.90;;;7.34;100.00;98185.53;5005156;28;20058;-71
2023/04/08 07:04:10;;;;;;;39.58;24.30;;;8.10;99.90;;;7.59;100.00;98185.03;5005306;28;20057;-70
2023/04/08 07:06:37;;;;;;;33.00;23.92;;;8.10;99.90;;;7.73;100.00;98170.09;5005690;28;20046;-70
2023/04/08 07:09:04;;;;;;;35.35;22.13;;;8.30;99.90;;;7.69;100.00;98177.06;5003644;28;20050;-71
2023/04/08 07:11:31;;;;;;;32.42;22.17;;;8.40;99.90;;;7.84;100.00;98177.63;5001664;28;20141;-71
2023/04/08 07:13:58;;;;;;;35.05;21.52;;;8.40;99.90;;;7.88;100.00;98171.50;5001932;28;20058;-71
2023/04/08 07:16:25;;;;;;;31.02;20.05;;;8.50;99.90;;;8.14;100.00;98171.78;4999996;28;20049;-71
2023/04/08 07:18:54;;;;;;;32.95;21.17;;;8.70;99.90;;;8.14;100.00;98163.13;4972178;28;20073;-70
2023/04/08 07:21:21;;;;;;;34.90;21.02;;;8.70;99.90;;;8.17;100.00;98163.94;4998568;28;20038;-71
2023/04/08 07:23:48;;;;;;;30.98;21.42;;;8.60;99.90;;;8.25;100.00;98160.31;5005935;28;20046;-71
2023/04/08 07:26:15;;;;;;;30.17;19.67;;;8.80;99.90;;;8.29;100.00;98155.03;5001791;28;20509;-71
2023/04/08 07:28:42;;;;;;;29.25;20.35;;;8.90;99.90;;;8.35;100.00;98148.88;5000620;28;20038;-71
2023/04/08 07:31:17;;;;;;;33.33;20.98;;;9.10;99.90;;;8.58;100.00;98149.16;5002274;28;20760;-71
2023/04/08 07:33:45;;;;;;;27.60;18.75;;;9.20;99.90;;;8.29;100.00;98146.41;5003238;28;20046;-71
2023/04/08 07:36:14;;;;;;;26.98;18.40;;;9.40;99.90;;;8.50;100.00;98132.13;5002543;28;20493;-70
2023/04/08 07:38:41;;;;;;;25.70;17.73;;;9.30;99.90;;;8.27;100.00;98133.50;4987938;28;20069;-71
2023/04/08 07:41:08;;;;;;;28.95;19.95;;;9.30;99.90;;;8.36;100.00;98145.38;4994238;28;20050;-71
2023/04/08 07:43:35;;;;;;;31.75;20.27;;;9.20;99.90;;;8.36;100.00;98138.47;5001556;28;20393;-71
2023/04/08 07:46:04;;;;;;;30.08;21.17;;;9.10;99.90;;;8.64;100.00;98136.94;5001248;28;20054;-71
2023/04/08 07:48:33;;;;;;;28.83;20.52;;;9.30;99.90;;;8.68;100.00;98134.25;4995379;28;20054;-71
2023/04/08 07:51:06;;;;;;;27.65;20.65;;;9.40;99.90;;;8.89;100.00;98129.38;4997356;28;20641;-71
2023/04/08 07:53:36;;;;;;;25.20;18.42;;;9.50;99.90;;;9.24;100.00;98131.03;5002556;28;20038;-70
2023/04/08 07:56:13;;;;;;;30.50;20.27;;;9.80;99.90;;;9.01;100.00;98126.47;5004008;28;20088;-71
2023/04/08 07:58:41;;;;;;;28.35;19.83;;;9.90;99.90;;;8.78;100.00;98130.53;4986925;28;20049;-71
2023/04/08 08:01:17;;;;;;;26.85;18.80;;;10.00;99.90;;;8.72;100.00;98133.28;4991528;28;20049;-71
2023/04/08 08:03:46;;;;;;;25.60;19.80;;;9.80;99.90;;;8.92;100.00;98126.75;5006354;28;20057;-71
2023/04/08 08:06:15;;;;;;;24.02;18.40;;;9.60;99.90;;;8.90;100.00;98131.94;5001779;28;20050;-71
2023/04/08 08:08:45;;;;;;;25.15;19.38;;;9.70;99.90;;;9.27;100.00;98130.91;5002069;28;20045;-71
2023/04/08 08:11:12;;;;;;;27.33;19.83;;;9.70;99.90;;;9.95;100.00;98134.94;5005650;28;20050;-71
2023/04/08 08:13:39;;;;;;;25.17;19.33;;;9.90;99.90;;;10.37;100.00;98128.47;4998420;28;20531;-71
2023/04/08 08:16:10;;;;;;;24.15;18.98;;;10.30;99.90;;;10.46;100.00;98126.41;5005752;28;20523;-72
2023/04/08 08:18:38;;;;;;;22.23;17.60;;;10.70;99.90;;;10.70;100.00;98128.22;5001819;28;20066;-72
2023/04/08 08:21:07;;;;;;;22.77;17.00;;;11.20;99.90;;;11.04;100.00;98131.34;5003656;28;20081;-72
2023/04/08 08:23:34;;;;;;;20.65;16.17;;;11.70;99.90;;;11.23;100.00;98122.91;5004889;28;20048;-72
2023/04/08 08:26:08;;;;;;;23.45;17.23;;;12.50;99.90;;;10.77;100.00;98125.38;5003353;28;20076;-72
2023/04/08 08:28:37;;;;;;;22.52;17.70;;;12.60;99.90;;;11.09;100.00;98139.81;5003325;28;20041;-71
2023/04/08 08:31:04;;;;;;;18.95;15.60;;;12.60;99.90;;;11.52;100.00;98133.06;5003064;28;20100;-70
2023/04/08 08:33:32;;;;;;;22.13;15.90;;;13.20;99.90;;;12.50;100.00;98122.31;5005745;28;20050;-70
2023/04/08 08:36:00;;;;;;;17.70;14.95;;;13.80;99.90;;;11.76;100.00;98122.63;5005426;28;20112;-71
2023/04/08 08:38:27;;;;;;;20.05;15.80;;;14.30;99.90;;;11.72;100.00;98128.84;5003711;28;20103;-71
2023/04/08 08:40:56;;;;;;;17.90;14.32;;;14.40;99.90;;;12.22;100.00;98130.41;5002554;28;20132;-70
2023/04/08 08:43:27;;;;;;;20.08;15.73;;;14.60;99.90;;;12.39;100.00;98140.97;5002150;28;20050;-71
2023/04/08 08:45:55;;;;;;;18.33;14.20;;;14.70;99.90;;;12.01;100.00;98137.31;5001464;28;20046;-70
2023/04/08 08:48:22;;;;;;;18.33;16.15;;;14.80;99.90;;;12.86;100.00;98135.53;4987506;28;20137;-70
2023/04/08 08:50:49;;;;;;;18.88;14.32;;;14.50;99.90;;;12.13;100.00;98134.22;5002705;28;20136;-71
2023/04/08 08:53:18;;;;;;;20.23;15.38;;;14.70;99.90;;;12.63;100.00;98135.66;5006482;28;20095;-71
2023/04/08 08:55:45;;;;;;;17.23;14.50;;;14.70;99.90;;;12.76;100.00;98129.88;5006502;28;20143;-71
2023/04/08 08:58:32;;;;;;;19.60;15.13;;;14.70;99.90;;;13.92;100.00;98130.81;5004494;28;20053;-71
2023/04/08 09:00:59;;;;;;;17.90;13.95;;;15.10;99.90;;;13.48;100.00;98131.09;5003539;28;20060;-71
2023/04/08 09:03:27;;;;;;;16.50;14.00;;;15.30;99.90;;;13.53;100.00;98142.16;5004491;28;20052;-71
2023/04/08 09:05:58;;;;;;;18.20;15.10;;;15.20;99.90;;;13.69;100.00;98141.47;5003343;28;20042;-71
2023/04/08 09:08:34;;;;;;;19.02;14.90;;;15.20;99.90;;;13.78;100.00;98144.50;5003089;28;20465;-71
2023/04/08 09:11:20;;;;;;;19.73;15.30;;;15.20;99.90;;;13.75;100.00;98144.66;5000248;28;20500;-70
2023/04/08 09:13:50;;;;;;;18.38;14.38;;;15.10;99.90;;;14.68;100.00;98143.69;4989486;28;20046;-70
2023/04/08 09:16:18;;;;;;;20.42;14.75;;;15.50;99.90;;;14.17;100.00;98137.47;5001062;28;20645;-71
2023/04/08 09:18:48;;;;;;;20.55;14.02;;;16.00;99.90;;;14.03;100.00;98143.34;5001145;28;20042;-70
2023/04/08 09:21:17;;;;;;;16.33;14.57;;;16.10;99.90;;;14.90;100.00;98140.84;5002276;28;20060;-70
2023/04/08 09:23:48;;;;;;;15.07;13.40;;;16.40;99.90;;;14.32;100.00;98146.31;5001881;28;20050;-71
2023/04/08 09:26:20;;;;;;;;;;;16.50;99.90;;;14.15;100.00;98142.75;4984689;28;20424;-70
2023/04/08 09:29:02;;;;;;;18.98;13.63;;;16.20;99.90;;;14.26;100.00;98144.84;5002608;28;19925;-71
2023/04/08 09:31:45;;;;;;;15.70;12.63;;;16.20;99.90;;;14.67;100.00;98136.78;5002897;28;20057;-71
2023/04/08 09:34:16;;;;;;;21.85;16.23;;;16.80;99.90;;;15.24;100.00;98145.16;5004128;28;20139;-71
2023/04/08 09:36:43;;;;;;;17.02;13.35;;;16.80;99.90;;;15.14;100.00;98149.16;5014814;28;20042;-75
2023/04/08 09:39:11;;;;;;;17.70;13.23;;;17.10;99.90;;;15.32;100.00;98149.97;5003009;28;20041;-76
2023/04/08 09:41:39;;;;;;;17.73;14.98;;;16.80;99.90;;;14.34;100.00;98152.31;5003491;28;20046;-75
2023/04/08 09:44:10;;;;;;;17.67;14.32;;;16.30;99.90;;;13.44;100.00;98149.56;4988158;28;20045;-75
2023/04/08 09:46:49;;;;;;;18.17;14.90;;;15.70;99.90;;;13.06;100.00;98149.47;5001113;28;20432;-76
2023/04/08 09:49:26;;;;;;;17.52;14.57;;;14.80;99.90;;;13.18;100.00;98156.72;4995870;28;20053;-75
2023/04/08 09:52:14;;;;;;;17.50;14.93;;;14.60;99.90;;;12.71;100.00;98154.44;5004295;28;20050;-77
2023/04/08 09:55:04;;;;;;;22.60;16.35;;;14.00;99.90;;;12.26;100.00;98152.78;5003278;28;20054;-75
2023/04/08 09:57:44;;;;;;;17.40;14.10;;;13.60;99.90;;;13.54;100.00;98156.88;5002434;28;20109;-76
2023/04/08 10:00:16;;;;;;;17.83;15.23;;;13.90;99.90;;;13.47;100.00;98155.47;5002175;28;20164;-74
2023/04/08 10:03:17;;;;;;;19.70;15.55;;;14.30;99.90;;;12.96;100.00;98168.09;5001443;28;20046;-74
2023/04/08 10:05:46;;;;;;;19.85;15.93;;;14.20;99.90;;;12.69;100.00;98162.31;5003276;28;20057;-74
2023/04/08 10:08:14;;;;;;;21.00;17.08;;;13.90;99.90;;;12.34;100.00;98163.75;5003973;28;20482;-76
2023/04/08 10:10:42;;;;;;;21.65;15.50;;;13.50;99.90;;;12.20;100.00;98166.03;4987886;28;20112;-76
2023/04/08 10:13:15;;;;;;;19.25;15.90;;;13.20;99.90;;;12.50;100.00;98164.81;4987980;28;20282;-76
2023/04/08 10:15:44;;;;;;;20.45;17.30;;;13.40;99.90;;;12.20;100.00;98159.09;4985303;28;20163;-75
2023/04/08 10:18:13;;;;;;;18.58;15.43;;;13.40;99.90;;;11.95;100.00;98164.44;5002520;28;20112;-75
2023/04/08 10:20:42;;;;;;;21.77;17.05;;;13.30;99.90;;;12.13;100.00;98158.50;5003157;28;20057;-76